createdAt,value
2023-03-29T00:01:34.955Z,21.29
2023-03-29T00:04:04.352Z,21.30
2023-03-29T00:06:33.150Z,21.27
2023-03-29T00:09:00.285Z,21.26
2023-03-29T00:11:27.396Z,21.22
2023-03-29T00:13:54.063Z,21.27
2023-03-29T00:16:20.725Z,21.21
2023-03-29T00:18:47.420Z,21.20
2023-03-29T00:21:14.046Z,21.14
2023-03-29T00:23:40.828Z,21.14
2023-03-29T00:26:08.393Z,21.12
2023-03-29T00:28:35.587Z,21.14
2023-03-29T00:31:10.362Z,21.08
2023-03-29T00:33:37.504Z,21.01
2023-03-29T00:36:04.598Z,21.05
2023-03-29T00:38:31.537Z,21.02
2023-03-29T00:40:58.633Z,21.00
2023-03-29T00:43:25.455Z,20.94
2023-03-29T00:45:52.147Z,20.95
2023-03-29T00:48:22.034Z,20.93
2023-03-29T00:50:57.327Z,20.92
2023-03-29T00:53:26.403Z,20.89
2023-03-29T00:55:57.482Z,20.93
2023-03-29T00:58:30.586Z,20.89
2023-03-29T01:01:08.839Z,20.89
2023-03-29T01:03:41.475Z,20.81
2023-03-29T01:06:08.728Z,20.89
2023-03-29T01:08:39.357Z,20.89
2023-03-29T01:11:14.890Z,20.86
2023-03-29T01:13:52.339Z,20.90
2023-03-29T01:16:19.463Z,20.87
2023-03-29T01:18:48.876Z,20.83
2023-03-29T01:21:15.374Z,20.83
2023-03-29T01:23:45.874Z,20.87
2023-03-29T01:26:18.921Z,20.81
2023-03-29T01:29:05.297Z,20.80
2023-03-29T01:31:42.938Z,20.79
2023-03-29T01:34:22.694Z,20.83
2023-03-29T01:37:04.464Z,20.76
2023-03-29T01:39:31.688Z,20.79
2023-03-29T01:42:14.753Z,20.76
2023-03-29T01:44:53.404Z,20.74
2023-03-29T01:47:31.603Z,20.72
2023-03-29T01:50:05.540Z,20.71
2023-03-29T01:52:38.114Z,20.72
2023-03-29T01:55:11.100Z,20.75
2023-03-29T01:57:38.885Z,20.72
2023-03-29T02:00:10.022Z,20.65
2023-03-29T02:02:38.634Z,20.66
2023-03-29T02:05:06.620Z,20.69
2023-03-29T02:07:37.370Z,20.63
2023-03-29T02:10:05.673Z,20.65
2023-03-29T02:12:32.692Z,20.68
2023-03-29T02:15:00.728Z,20.61
2023-03-29T02:17:30.753Z,20.66
2023-03-29T02:20:28.596Z,20.65
2023-03-29T02:22:55.145Z,20.61
2023-03-29T02:25:22.602Z,20.56
2023-03-29T02:27:49.819Z,20.54
2023-03-29T02:30:17.468Z,20.57
2023-03-29T02:33:25.849Z,20.52
2023-03-29T02:35:57.512Z,20.52
2023-03-29T02:38:26.502Z,20.50
2023-03-29T02:40:53.364Z,20.48
2023-03-29T02:43:19.981Z,20.48
2023-03-29T02:45:46.566Z,20.45
2023-03-29T02:48:14.783Z,20.41
2023-03-29T02:50:41.755Z,20.40
2023-03-29T02:53:19.445Z,20.41
2023-03-29T02:55:46.932Z,20.42
2023-03-29T02:58:15.468Z,20.45
2023-03-29T03:00:51.145Z,20.53
2023-03-29T03:03:17.850Z,20.62
2023-03-29T03:05:44.580Z,20.78
2023-03-29T03:08:11.431Z,20.75
2023-03-29T03:10:39.175Z,20.83
2023-03-29T03:13:05.835Z,20.87
2023-03-29T03:15:35.727Z,20.97
2023-03-29T03:18:06.077Z,21.04
2023-03-29T03:20:33.369Z,21.14
2023-03-29T03:23:01.103Z,21.21
2023-03-29T03:25:28.756Z,21.34
2023-03-29T03:27:55.487Z,21.37
2023-03-29T03:30:22.265Z,21.43
2023-03-29T03:32:49.952Z,21.46
2023-03-29T03:35:16.615Z,21.56
2023-03-29T03:37:43.227Z,21.51
2023-03-29T03:40:11.774Z,21.60
2023-03-29T03:42:39.307Z,21.75
2023-03-29T03:45:06.510Z,21.76
2023-03-29T03:47:33.236Z,21.71
2023-03-29T03:49:59.855Z,21.88
2023-03-29T03:52:27.027Z,21.92
2023-03-29T03:54:53.652Z,21.98
2023-03-29T03:57:20.267Z,22.01
2023-03-29T03:59:47.631Z,22.05
2023-03-29T04:02:14.918Z,22.04
2023-03-29T04:04:42.238Z,22.13
2023-03-29T04:07:09.662Z,22.24
2023-03-29T04:09:36.296Z,22.32
2023-03-29T04:12:02.933Z,22.28
2023-03-29T04:14:31.698Z,22.37
2023-03-29T04:16:58.267Z,22.31
2023-03-29T04:19:24.898Z,22.25
2023-03-29T04:21:51.504Z,22.45
2023-03-29T04:24:18.168Z,22.46
2023-03-29T04:26:45.105Z,22.57
2023-03-29T04:29:11.856Z,22.51
2023-03-29T04:31:38.536Z,22.58
2023-03-29T04:34:05.213Z,22.87
2023-03-29T04:36:31.921Z,22.93
2023-03-29T04:39:01.405Z,22.96
2023-03-29T04:41:28.729Z,23.20
2023-03-29T04:43:56.159Z,23.14
2023-03-29T04:46:26.380Z,23.14
2023-03-29T04:48:53.956Z,23.15
2023-03-29T04:51:22.319Z,23.40
2023-03-29T04:53:50.258Z,23.18
2023-03-29T04:56:17.328Z,22.70
2023-03-29T04:58:44.629Z,22.84
2023-03-29T05:01:11.381Z,23.55
2023-03-29T05:03:38.039Z,22.52
2023-03-29T05:06:07.226Z,23.05
2023-03-29T05:08:35.077Z,21.81
2023-03-29T05:11:02.062Z,20.79
2023-03-29T05:13:28.808Z,20.47
2023-03-29T05:15:57.142Z,19.79
2023-03-29T05:18:23.852Z,19.21
2023-03-29T05:20:53.066Z,19.10
2023-03-29T05:23:20.376Z,18.74
2023-03-29T05:25:50.855Z,18.72
2023-03-29T05:28:18.432Z,18.67
2023-03-29T05:30:45.966Z,18.59
2023-03-29T05:33:12.817Z,18.47
2023-03-29T05:35:39.467Z,18.59
2023-03-29T05:38:06.483Z,19.29
2023-03-29T05:40:33.741Z,18.66
2023-03-29T05:43:02.550Z,18.79
2023-03-29T05:45:29.833Z,18.43
2023-03-29T05:47:57.711Z,18.39
2023-03-29T05:50:24.848Z,18.31
2023-03-29T05:52:51.658Z,18.02
2023-03-29T05:55:18.622Z,18.02
2023-03-29T05:57:45.300Z,17.97
2023-03-29T06:00:23.947Z,17.81
2023-03-29T06:02:52.694Z,17.82
2023-03-29T06:05:22.932Z,17.97
2023-03-29T06:07:49.838Z,17.99
2023-03-29T06:10:16.549Z,17.83
2023-03-29T06:12:43.185Z,17.81
2023-03-29T06:15:10.380Z,17.71
2023-03-29T06:17:37.115Z,17.40
2023-03-29T06:20:08.749Z,17.67
2023-03-29T06:22:36.071Z,17.97
2023-03-29T06:25:02.647Z,18.61
2023-03-29T06:27:29.265Z,18.58
2023-03-29T06:29:55.882Z,18.55
2023-03-29T06:32:23.420Z,18.56
2023-03-29T06:34:50.994Z,18.53
2023-03-29T06:37:17.837Z,18.59
2023-03-29T06:39:44.448Z,18.48
2023-03-29T06:42:20.757Z,18.54
2023-03-29T06:44:48.490Z,18.54
2023-03-29T06:47:15.877Z,18.83
2023-03-29T06:49:42.481Z,18.58
2023-03-29T06:52:09.471Z,18.68
2023-03-29T06:54:36.238Z,18.73
2023-03-29T06:57:03.873Z,18.83
2023-03-29T06:59:30.523Z,19.20
2023-03-29T07:01:57.268Z,19.13
2023-03-29T07:04:24.766Z,19.36
2023-03-29T07:07:01.308Z,19.35
2023-03-29T07:09:39.995Z,19.76
2023-03-29T07:12:06.837Z,20.14
2023-03-29T07:14:34.387Z,20.33
2023-03-29T07:17:00.949Z,20.09
2023-03-29T07:19:30.220Z,20.29
2023-03-29T07:21:57.293Z,20.39
2023-03-29T07:24:23.916Z,20.67
2023-03-29T07:27:03.159Z,20.62
2023-03-29T07:29:31.097Z,20.92
2023-03-29T07:31:57.752Z,20.82
2023-03-29T07:34:30.078Z,20.99
2023-03-29T07:36:57.822Z,21.09
2023-03-29T07:39:26.233Z,21.07
2023-03-29T07:41:53.014Z,21.68
2023-03-29T07:44:21.618Z,21.91
2023-03-29T07:46:50.630Z,22.18
2023-03-29T07:49:17.295Z,21.92
2023-03-29T07:51:43.980Z,21.71
2023-03-29T07:54:10.772Z,21.84
2023-03-29T07:56:37.338Z,21.70
2023-03-29T07:59:03.976Z,22.15
2023-03-29T08:01:31.018Z,21.32
2023-03-29T08:03:57.878Z,21.70
2023-03-29T08:06:26.726Z,22.18
2023-03-29T08:08:53.328Z,22.05
2023-03-29T08:11:19.952Z,21.94
2023-03-29T08:13:46.526Z,22.50
2023-03-29T08:16:13.189Z,22.52
2023-03-29T08:18:39.846Z,22.35
2023-03-29T08:21:07.277Z,22.89
2023-03-29T08:23:33.862Z,22.86
2023-03-29T08:26:00.498Z,22.98
2023-03-29T08:28:29.319Z,23.15
2023-03-29T08:30:56.031Z,23.09
2023-03-29T08:33:25.177Z,23.02
2023-03-29T08:35:51.928Z,23.02
2023-03-29T08:38:18.912Z,23.08
2023-03-29T08:40:48.395Z,22.87
2023-03-29T08:43:52.213Z,23.00
2023-03-29T08:46:21.753Z,23.15
2023-03-29T08:49:11.014Z,23.12
2023-03-29T08:51:49.643Z,23.51
2023-03-29T08:54:24.989Z,23.47
2023-03-29T08:56:52.028Z,23.54
2023-03-29T08:59:38.835Z,23.79
2023-03-29T09:02:05.728Z,23.80
2023-03-29T09:04:34.864Z,23.97
2023-03-29T09:07:03.556Z,24.35
2023-03-29T09:09:34.563Z,24.06
2023-03-29T09:12:34.640Z,24.11
2023-03-29T09:15:16.391Z,24.11
2023-03-29T09:17:42.976Z,24.05
2023-03-29T09:20:47.872Z,23.72
2023-03-29T09:23:32.710Z,23.60
2023-03-29T09:26:34.045Z,23.57
2023-03-29T09:29:36.408Z,23.54
2023-03-29T09:32:04.527Z,23.38
2023-03-29T09:34:35.469Z,23.06
2023-03-29T09:37:04.278Z,22.90
2023-03-29T09:39:31.079Z,22.91
2023-03-29T09:42:09.028Z,22.79
2023-03-29T09:44:44.081Z,22.86
2023-03-29T09:47:19.893Z,22.75
2023-03-29T09:49:47.890Z,22.63
2023-03-29T09:52:15.352Z,22.14
2023-03-29T09:54:41.932Z,22.48
2023-03-29T09:57:16.897Z,22.32
2023-03-29T09:59:44.856Z,22.28
2023-03-29T10:02:12.979Z,20.77
2023-03-29T10:04:42.094Z,20.23
2023-03-29T10:07:09.322Z,20.08
2023-03-29T10:09:36.063Z,18.51
2023-03-29T10:12:05.776Z,18.26
2023-03-29T10:14:42.785Z,18.14
2023-03-29T10:17:15.821Z,17.73
2023-03-29T10:19:53.001Z,17.71
2023-03-29T10:22:23.137Z,17.25
2023-03-29T10:24:55.829Z,17.65
2023-03-29T10:27:34.594Z,17.34
2023-03-29T10:30:07.536Z,17.30
2023-03-29T10:32:35.321Z,18.64
2023-03-29T10:35:10.833Z,21.37
2023-03-29T10:37:43.980Z,21.34
2023-03-29T10:40:27.914Z,20.81
2023-03-29T10:42:54.753Z,21.03
2023-03-29T10:45:25.218Z,21.02
2023-03-29T10:47:51.965Z,21.09
2023-03-29T10:50:18.855Z,21.35
2023-03-29T10:52:45.588Z,21.57
2023-03-29T10:55:15.071Z,21.75
2023-03-29T10:57:51.080Z,21.86
2023-03-29T11:00:21.160Z,22.31
2023-03-29T11:02:53.690Z,22.27
2023-03-29T11:05:33.911Z,22.41
2023-03-29T11:08:16.602Z,22.50
2023-03-29T11:10:49.814Z,22.68
2023-03-29T11:13:45.778Z,22.85
2023-03-29T11:16:16.671Z,22.54
2023-03-29T11:18:55.345Z,22.97
2023-03-29T11:21:39.829Z,23.31
2023-03-29T11:24:29.035Z,23.53
2023-03-29T11:27:29.142Z,23.11
2023-03-29T11:30:06.843Z,23.02
2023-03-29T11:32:33.501Z,23.27
2023-03-29T11:35:18.969Z,23.43
2023-03-29T11:38:14.011Z,23.59
2023-03-29T11:40:57.693Z,23.83
2023-03-29T11:43:27.339Z,23.90
2023-03-29T11:45:56.772Z,23.96
2023-03-29T11:48:32.603Z,24.05
2023-03-29T11:51:00.879Z,23.45
2023-03-29T11:53:31.624Z,23.24
2023-03-29T11:56:00.744Z,22.21
2023-03-29T11:58:32.251Z,20.58
2023-03-29T12:01:02.560Z,20.06
2023-03-29T12:03:52.568Z,21.06
2023-03-29T12:06:26.241Z,19.86
2023-03-29T12:09:17.434Z,19.82
2023-03-29T12:12:12.236Z,19.84
2023-03-29T12:14:44.813Z,19.89
2023-03-29T12:17:21.130Z,20.03
2023-03-29T12:19:54.297Z,19.64
2023-03-29T12:22:24.314Z,19.51
2023-03-29T12:24:51.321Z,19.54
2023-03-29T12:27:31.015Z,19.28
2023-03-29T12:29:57.552Z,19.23
2023-03-29T12:32:43.113Z,19.28
2023-03-29T12:35:22.251Z,19.07
2023-03-29T12:38:30.098Z,18.82
2023-03-29T12:41:08.563Z,18.97
2023-03-29T12:43:43.445Z,18.98
2023-03-29T12:46:11.464Z,18.97
2023-03-29T12:48:39.098Z,19.08
2023-03-29T12:51:10.932Z,19.06
2023-03-29T12:53:48.706Z,19.25
2023-03-29T12:56:17.178Z,19.30
2023-03-29T12:58:55.234Z,20.47
2023-03-29T13:01:33.227Z,22.04
2023-03-29T13:04:03.137Z,22.87
2023-03-29T13:06:36.498Z,22.84
2023-03-29T13:09:19.055Z,22.78
2023-03-29T13:11:51.650Z,22.72
2023-03-29T13:14:19.694Z,22.78
2023-03-29T13:16:48.876Z,22.53
2023-03-29T13:19:35.976Z,22.51
2023-03-29T13:22:37.630Z,22.41
2023-03-29T13:25:06.149Z,22.35
2023-03-29T13:27:55.413Z,22.48
2023-03-29T13:30:31.336Z,22.17
2023-03-29T13:33:16.552Z,22.55
2023-03-29T13:36:16.125Z,22.47
2023-03-29T13:38:47.026Z,22.35
2023-03-29T13:41:33.268Z,22.01
2023-03-29T13:43:59.753Z,22.10
2023-03-29T13:46:37.324Z,22.08
2023-03-29T13:49:06.891Z,22.11
2023-03-29T13:51:37.472Z,22.22
2023-03-29T13:54:35.610Z,22.25
2023-03-29T13:57:32.272Z,22.24
2023-03-29T14:00:18.263Z,22.15
2023-03-29T14:02:55.897Z,22.05
2023-03-29T14:05:30.861Z,22.20
2023-03-29T14:07:57.700Z,22.14
2023-03-29T14:10:37.105Z,22.00
2023-03-29T14:13:04.091Z,22.07
2023-03-29T14:15:43.768Z,22.29
2023-03-29T14:18:12.154Z,21.78
2023-03-29T14:20:38.782Z,21.97
2023-03-29T14:23:13.286Z,21.89
2023-03-29T14:25:40.996Z,21.76
2023-03-29T14:28:29.284Z,21.81
2023-03-29T14:30:56.743Z,21.56
2023-03-29T14:33:34.752Z,21.61
2023-03-29T14:36:03.812Z,21.41
2023-03-29T14:38:30.924Z,21.50
2023-03-29T14:41:01.259Z,21.39
2023-03-29T14:43:30.379Z,21.32
2023-03-29T14:45:57.820Z,21.30
2023-03-29T14:48:24.518Z,21.33
2023-03-29T14:50:51.146Z,21.24
2023-03-29T14:53:19.919Z,21.19
2023-03-29T14:55:54.311Z,21.32
2023-03-29T14:58:31.871Z,21.17
2023-03-29T15:00:58.900Z,21.18
2023-03-29T15:03:29.276Z,21.19
2023-03-29T15:06:01.235Z,21.15
2023-03-29T15:08:27.910Z,21.05
2023-03-29T15:10:54.582Z,21.21
2023-03-29T15:13:24.285Z,21.02
2023-03-29T15:15:56.498Z,21.03
2023-03-29T15:18:39.914Z,20.96
2023-03-29T15:21:07.090Z,20.83
2023-03-29T15:24:00.735Z,20.92
2023-03-29T15:26:35.142Z,20.96
2023-03-29T15:29:03.119Z,20.90
2023-03-29T15:31:34.856Z,21.12
2023-03-29T15:34:07.641Z,21.14
2023-03-29T15:36:42.460Z,21.21
2023-03-29T15:39:15.347Z,21.33
2023-03-29T15:41:42.311Z,21.29
2023-03-29T15:44:09.106Z,21.29
2023-03-29T15:46:35.750Z,21.32
2023-03-29T15:49:02.960Z,21.22
2023-03-29T15:51:29.546Z,21.34
2023-03-29T15:53:56.115Z,21.24
2023-03-29T15:56:22.951Z,21.28
2023-03-29T15:58:49.564Z,21.29
2023-03-29T16:01:36.637Z,21.38
2023-03-29T16:04:09.467Z,21.41
2023-03-29T16:06:36.196Z,21.44
2023-03-29T16:09:03.092Z,21.52
2023-03-29T16:11:29.709Z,21.54
2023-03-29T16:13:56.493Z,21.51
2023-03-29T16:16:23.465Z,21.59
2023-03-29T16:18:50.192Z,21.59
2023-03-29T16:21:20.676Z,21.62
2023-03-29T16:23:47.409Z,21.66
2023-03-29T16:26:16.241Z,21.63
2023-03-29T16:28:43.281Z,21.86
2023-03-29T16:31:11.829Z,21.82
2023-03-29T16:33:38.818Z,21.88
2023-03-29T16:36:06.616Z,21.84
2023-03-29T16:38:33.758Z,21.90
2023-03-29T16:41:00.595Z,22.05
2023-03-29T16:43:27.299Z,21.97
2023-03-29T16:45:53.937Z,21.95
2023-03-29T16:48:20.740Z,21.93
2023-03-29T16:50:49.495Z,21.90
2023-03-29T16:53:16.716Z,22.16
2023-03-29T16:55:43.340Z,22.00
2023-03-29T16:58:09.996Z,22.07
2023-03-29T17:00:36.665Z,22.26
2023-03-29T17:03:03.557Z,22.33
2023-03-29T17:05:30.231Z,22.28
2023-03-29T17:07:56.816Z,22.28
2023-03-29T17:10:23.517Z,22.30
2023-03-29T17:12:50.143Z,22.14
2023-03-29T17:15:18.155Z,22.25
2023-03-29T17:17:44.770Z,22.27
2023-03-29T17:20:14.339Z,22.17
2023-03-29T17:22:41.142Z,22.12
2023-03-29T17:25:08.309Z,21.74
2023-03-29T17:27:35.594Z,21.58
2023-03-29T17:30:02.370Z,21.47
2023-03-29T17:32:29.058Z,21.33
2023-03-29T17:34:55.942Z,21.25
2023-03-29T17:37:22.773Z,21.15
2023-03-29T17:39:49.429Z,21.12
2023-03-29T17:42:18.758Z,21.05
2023-03-29T17:44:45.577Z,21.02
2023-03-29T17:47:12.205Z,21.04
2023-03-29T17:49:38.806Z,21.01
2023-03-29T17:52:05.393Z,21.01
2023-03-29T17:54:31.991Z,21.01
2023-03-29T17:56:58.990Z,21.06
2023-03-29T17:59:25.712Z,21.09
2023-03-29T18:01:52.426Z,21.06
2023-03-29T18:04:19.082Z,21.08
2023-03-29T18:06:45.808Z,21.06
2023-03-29T18:09:12.928Z,21.08
2023-03-29T18:11:39.558Z,21.12
2023-03-29T18:14:06.370Z,21.14
2023-03-29T18:16:33.074Z,21.12
2023-03-29T18:18:59.693Z,21.13
2023-03-29T18:21:27.460Z,21.13
2023-03-29T18:23:56.657Z,21.17
2023-03-29T18:26:24.205Z,21.17
2023-03-29T18:28:51.112Z,21.18
2023-03-29T18:31:19.947Z,21.19
2023-03-29T18:33:46.925Z,21.22
2023-03-29T18:36:13.892Z,21.21
2023-03-29T18:38:43.232Z,21.21
2023-03-29T18:41:11.229Z,21.21
2023-03-29T18:43:39.277Z,21.21
2023-03-29T18:46:07.143Z,21.23
2023-03-29T18:48:39.130Z,21.23
2023-03-29T18:51:09.926Z,21.25
2023-03-29T18:53:36.971Z,21.24
2023-03-29T18:56:04.291Z,21.25
2023-03-29T18:58:31.235Z,21.29
2023-03-29T19:01:05.139Z,21.29
2023-03-29T19:03:35.303Z,21.33
2023-03-29T19:06:02.312Z,21.33
2023-03-29T19:08:29.226Z,21.45
2023-03-29T19:11:03.120Z,21.56
2023-03-29T19:13:29.840Z,21.59
2023-03-29T19:15:56.519Z,21.61
2023-03-29T19:18:23.190Z,21.75
2023-03-29T19:20:54.207Z,21.87
2023-03-29T19:23:21.923Z,21.99
2023-03-29T19:25:55.293Z,22.00
2023-03-29T19:28:22.024Z,22.13
2023-03-29T19:30:48.874Z,22.18
2023-03-29T19:33:15.824Z,22.28
2023-03-29T19:35:42.621Z,22.37
2023-03-29T19:38:09.265Z,22.45
2023-03-29T19:40:36.574Z,22.57
2023-03-29T19:43:03.480Z,22.58
2023-03-29T19:45:30.104Z,22.61
2023-03-29T19:47:57.514Z,22.73
2023-03-29T19:50:24.797Z,22.75
2023-03-29T19:52:51.717Z,22.82
2023-03-29T19:55:18.628Z,22.83
2023-03-29T19:57:45.297Z,22.90
2023-03-29T20:00:14.156Z,23.01
2023-03-29T20:02:42.524Z,22.91
2023-03-29T20:05:09.335Z,23.10
2023-03-29T20:07:36.418Z,23.03
2023-03-29T20:10:05.869Z,23.10
2023-03-29T20:12:32.517Z,23.07
2023-03-29T20:14:59.108Z,23.20
2023-03-29T20:17:28.929Z,23.26
2023-03-29T20:19:55.786Z,23.29
2023-03-29T20:22:25.981Z,23.32
2023-03-29T20:24:53.178Z,23.40
2023-03-29T20:27:19.914Z,23.47
2023-03-29T20:29:49.453Z,23.55
2023-03-29T20:32:16.257Z,23.57
2023-03-29T20:34:42.870Z,23.61
2023-03-29T20:37:09.519Z,23.65
2023-03-29T20:39:36.179Z,23.67
2023-03-29T20:42:02.793Z,23.72
2023-03-29T20:44:29.523Z,23.69
2023-03-29T20:47:03.515Z,23.84
2023-03-29T20:49:37.031Z,23.82
2023-03-29T20:52:15.522Z,23.89
2023-03-29T20:54:42.772Z,23.90
2023-03-29T20:57:17.075Z,23.88
2023-03-29T20:59:43.937Z,23.96
2023-03-29T21:02:21.439Z,23.98
2023-03-29T21:04:52.135Z,24.09
2023-03-29T21:07:20.011Z,24.11
2023-03-29T21:09:48.393Z,24.07
2023-03-29T21:12:15.021Z,24.18
2023-03-29T21:14:41.786Z,24.15
2023-03-29T21:17:16.566Z,24.32
2023-03-29T21:19:43.241Z,24.30
2023-03-29T21:22:13.747Z,24.35
2023-03-29T21:24:40.572Z,24.35
2023-03-29T21:27:07.317Z,24.42
2023-03-29T21:29:34.058Z,24.42
2023-03-29T21:32:00.919Z,24.53
2023-03-29T21:34:27.602Z,24.49
2023-03-29T21:36:54.317Z,24.51
2023-03-29T21:39:20.877Z,24.58
2023-03-29T21:41:47.533Z,24.63
2023-03-29T21:44:14.164Z,24.60
2023-03-29T21:46:40.779Z,24.57
2023-03-29T21:49:07.743Z,24.55
2023-03-29T21:51:34.337Z,24.74
2023-03-29T21:54:01.039Z,24.78
2023-03-29T21:56:28.251Z,24.84
2023-03-29T21:58:54.986Z,24.67
2023-03-29T22:01:21.731Z,24.91
2023-03-29T22:03:48.415Z,24.83
2023-03-29T22:06:15.054Z,24.87
2023-03-29T22:08:41.668Z,25.02
2023-03-29T22:11:10.947Z,24.90
2023-03-29T22:13:38.022Z,24.99
2023-03-29T22:16:05.136Z,25.23
2023-03-29T22:18:42.499Z,25.14
2023-03-29T22:21:31.727Z,25.05
2023-03-29T22:23:59.539Z,25.14
2023-03-29T22:26:28.433Z,25.28
2023-03-29T22:28:55.730Z,25.35
2023-03-29T22:31:23.193Z,25.55
2023-03-29T22:33:50.080Z,25.25
2023-03-29T22:36:21.994Z,25.11
2023-03-29T22:38:49.006Z,25.22
2023-03-29T22:41:15.846Z,25.37
2023-03-29T22:43:42.576Z,25.56
2023-03-29T22:46:10.643Z,25.38
2023-03-29T22:48:37.324Z,25.39
2023-03-29T22:51:05.552Z,25.35
2023-03-29T22:53:33.111Z,25.39
2023-03-29T22:55:59.767Z,25.42
2023-03-29T23:00:53.430Z,25.43
2023-03-29T23:03:20.037Z,25.44
2023-03-29T23:05:54.964Z,25.50
2023-03-29T23:08:22.366Z,25.59
2023-03-29T23:10:49.022Z,25.53
2023-03-29T23:13:19.990Z,25.52
2023-03-29T23:15:48.100Z,25.51
2023-03-29T23:18:21.420Z,25.46
2023-03-29T23:20:48.733Z,25.55
2023-03-29T23:23:16.123Z,25.60
2023-03-29T23:25:47.474Z,25.58
2023-03-29T23:28:14.736Z,25.72
2023-03-29T23:30:43.661Z,25.65
2023-03-29T23:33:10.513Z,25.70
2023-03-29T23:35:37.644Z,25.78
2023-03-29T23:38:05.571Z,25.79
2023-03-29T23:40:33.282Z,25.86
2023-03-29T23:42:59.975Z,25.88
2023-03-29T23:45:27.892Z,25.87
2023-03-29T23:47:54.702Z,25.93
2023-03-29T23:50:22.628Z,25.89
2023-03-29T23:52:49.614Z,25.83
2023-03-29T23:55:16.311Z,25.84
2023-03-29T23:57:43.230Z,25.83
